Time;durP1;ratioP1;P1;durP2;ratioP2;P2;SDS_P1;SDS_P2;PMS_P1;PMS_P2;Temp;Humidity;BMP_temperature;BMP_pressure;BME280_temperature;BME280_humidity;BME280_pressure;Samples;Min_cycle;Max_cycle;Signal;HPM_P1;HPM_P2
2021/01/15 00:00:59;;;;;;;1.00;0.93;;;;;;;21.37;37.14;101515.25;6307549;22;20232;-63
2021/01/15 00:03:25;;;;;;;0.90;0.90;;;;;;;21.38;36.85;101516.94;6280536;22;20572;-63
2021/01/15 00:05:51;;;;;;;0.80;0.80;;;;;;;21.39;36.82;101521.38;6280686;22;20166;-67
2021/01/15 00:08:17;;;;;;;0.90;0.90;;;;;;;21.39;36.68;101516.78;6306681;22;20162;-67
2021/01/15 00:10:44;;;;;;;0.90;0.90;;;;;;;21.39;36.74;101518.66;6306674;22;20681;-63
2021/01/15 00:13:10;;;;;;;0.80;0.80;;;;;;;21.39;36.80;101526.81;6279834;22;20181;-66
2021/01/15 00:15:36;;;;;;;0.97;0.80;;;;;;;21.36;36.59;101519.00;6279984;22;20216;-67
2021/01/15 00:18:02;;;;;;;1.00;1.00;;;;;;;21.34;36.88;101518.31;6254265;22;20162;-63
2021/01/15 00:20:28;;;;;;;1.00;1.00;;;;;;;21.30;36.54;101531.41;6279600;22;20253;-65
2021/01/15 00:22:54;;;;;;;0.93;0.93;;;;;;;21.25;36.72;101532.91;6254233;22;20158;-65
2021/01/15 00:25:20;;;;;;;0.90;0.90;;;;;;;21.21;37.10;101531.50;6279734;22;20212;-66
2021/01/15 00:27:46;;;;;;;0.97;0.83;;;;;;;21.19;37.15;101533.53;6254467;22;20235;-64
2021/01/15 00:30:12;;;;;;;0.90;0.90;;;;;;;21.19;37.29;101539.00;6305885;22;20540;-64
2021/01/15 00:32:39;;;;;;;0.90;0.90;;;;;;;21.19;37.36;101533.53;6279474;22;20201;-66
2021/01/15 00:35:06;;;;;;;0.80;0.80;;;;;;;21.21;37.26;101534.22;6254399;22;20158;-68
2021/01/15 00:37:32;;;;;;;0.93;0.93;;;;;;;21.22;37.60;101538.66;6279627;22;20161;-69
2021/01/15 00:39:59;;;;;;;0.73;0.73;;;;;;;21.24;37.56;101536.66;6279823;22;20178;-66
2021/01/15 00:42:25;;;;;;;0.80;0.80;;;;;;;21.25;37.66;101543.78;6254479;22;20216;-65
2021/01/15 00:44:55;;;;;;;0.97;0.97;;;;;;;21.27;37.59;101539.88;6279844;22;20391;-65
2021/01/15 00:47:22;;;;;;;0.80;0.80;;;;;;;21.31;37.42;101537.72;6280841;22;20494;-66
2021/01/15 00:49:48;;;;;;;0.80;0.80;;;;;;;21.35;37.51;101549.97;6279731;22;20182;-65
2021/01/15 00:52:16;;;;;;;0.90;0.90;;;;;;;21.36;37.32;101541.63;6279657;22;20190;-68
2021/01/15 00:54:42;;;;;;;0.80;0.80;;;;;;;21.38;37.40;101538.75;6279867;22;20253;-68
2021/01/15 00:57:08;;;;;;;0.90;0.90;;;;;;;21.39;37.47;101546.75;6254206;22;20575;-68
2021/01/15 00:59:34;;;;;;;0.80;0.80;;;;;;;21.41;37.12;101549.31;6305301;22;20189;-62
2021/01/15 01:02:00;;;;;;;0.80;0.80;;;;;;;21.41;36.88;101543.84;6254284;22;20162;-62
2021/01/15 01:04:26;;;;;;;0.83;0.83;;;;;;;21.41;37.03;101543.84;6254557;22;20583;-68
2021/01/15 01:06:53;;;;;;;0.80;0.80;;;;;;;21.42;37.07;101551.00;6279376;22;20158;-68
2021/01/15 01:09:19;;;;;;;0.90;0.90;;;;;;;21.41;37.24;101557.47;6306279;22;20174;-64
2021/01/15 01:11:45;;;;;;;0.80;0.80;;;;;;;21.41;37.17;101562.91;6228469;22;20527;-65
2021/01/15 01:14:11;;;;;;;0.90;0.90;;;;;;;21.39;37.04;101567.69;6279553;22;20154;-64
2021/01/15 01:16:37;;;;;;;0.97;0.97;;;;;;;21.36;37.13;101560.69;6281515;22;20161;-62
2021/01/15 01:19:03;;;;;;;0.93;0.93;;;;;;;21.33;36.99;101571.94;6256176;22;20615;-66
2021/01/15 01:21:32;;;;;;;0.73;0.73;;;;;;;21.30;36.77;101574.13;6255853;22;20159;-67
2021/01/15 01:23:58;;;;;;;0.80;0.80;;;;;;;21.26;36.98;101573.59;6308386;22;20572;-68
2021/01/15 01:26:24;;;;;;;0.83;0.83;;;;;;;21.22;37.08;101577.63;6308135;22;20191;-63
2021/01/15 01:28:50;;;;;;;0.80;0.80;;;;;;;21.21;36.89;101581.38;6281201;22;20215;-62
2021/01/15 01:31:17;;;;;;;0.90;0.90;;;;;;;21.20;37.15;101585.09;6307812;22;20555;-63
2021/01/15 01:33:43;;;;;;;1.23;1.00;;;;;;;21.19;36.87;101590.72;6255779;22;20158;-62
2021/01/15 01:36:09;;;;;;;0.97;0.97;;;;;;;21.19;36.99;101588.00;6255607;22;20587;-63
2021/01/15 01:38:36;;;;;;;0.80;0.80;;;;;;;21.19;37.20;101588.84;6255691;22;20162;-62
2021/01/15 01:41:02;;;;;;;0.80;0.80;;;;;;;21.22;37.07;101595.84;6255539;22;20254;-63
2021/01/15 01:43:28;;;;;;;1.20;1.10;;;;;;;21.23;37.48;101595.66;6307984;22;20169;-67
2021/01/15 01:45:54;;;;;;;1.00;1.00;;;;;;;21.24;37.47;101608.28;6308110;22;20474;-67
2021/01/15 01:48:20;;;;;;;0.90;0.90;;;;;;;21.27;37.45;101605.25;6308063;22;20154;-67
2021/01/15 01:50:49;;;;;;;1.00;1.00;;;;;;;21.31;37.46;101603.06;6281033;22;20182;-67
2021/01/15 01:53:17;;;;;;;0.90;0.90;;;;;;;21.33;37.41;101607.34;6255888;22;20571;-65
2021/01/15 01:55:44;;;;;;;1.00;1.00;;;;;;;21.35;37.36;101610.75;6281640;22;20158;-65
2021/01/15 01:58:11;;;;;;;1.50;1.40;;;;;;;21.38;37.49;101615.00;6255585;22;20166;-69
2021/01/15 02:00:39;;;;;;;1.60;1.50;;;;;;;21.41;37.49;101620.13;6280800;22;20239;-64
2021/01/15 02:03:06;;;;;;;1.60;1.50;;;;;;;21.41;37.39;101615.53;6255785;22;20177;-63
2021/01/15 02:05:32;;;;;;;1.47;1.37;;;;;;;21.44;37.28;101623.34;6307840;22;20229;-69
2021/01/15 02:07:58;;;;;;;1.63;1.53;;;;;;;21.45;37.30;101624.22;6307884;22;20162;-64
2021/01/15 02:10:40;;;;;;;1.50;1.40;;;;;;;21.46;37.08;101628.63;6280979;22;20182;-66
2021/01/15 02:13:45;;;;;;;1.30;1.20;;;;;;;21.49;36.98;101630.19;6280802;22;20171;-67
2021/01/15 02:16:12;;;;;;;1.57;1.47;;;;;;;21.47;36.75;101630.34;6285434;22;20149;-63
2021/01/15 02:18:46;;;;;;;1.50;1.40;;;;;;;21.46;36.93;101634.09;6255355;22;20178;-68
2021/01/15 02:21:38;;;;;;;1.47;1.37;;;;;;;21.44;36.97;101636.97;6256109;22;20147;-63
2021/01/15 02:24:26;;;;;;;1.33;1.23;;;;;;;21.41;37.01;101637.31;6280649;22;20173;-65
2021/01/15 02:27:14;;;;;;;1.30;1.30;;;;;;;21.36;37.00;101645.13;6307299;22;20157;-67
2021/01/15 02:29:42;;;;;;;1.47;1.37;;;;;;;21.29;37.04;101638.59;6307152;22;20227;-63
2021/01/15 02:32:33;;;;;;;1.57;1.47;;;;;;;21.27;36.73;101647.97;6255675;22;20190;-64
2021/01/15 02:35:52;;;;;;;1.60;1.50;;;;;;;21.27;36.75;101650.69;6256787;22;20497;-69
2021/01/15 02:38:55;;;;;;;1.73;1.63;;;;;;;21.26;36.84;101648.97;6183181;23;20169;-69
2021/01/15 02:41:26;;;;;;;1.50;1.40;;;;;;;21.20;36.88;101650.47;6183281;23;20199;-67
2021/01/15 02:44:00;;;;;;;1.50;1.40;;;;;;;21.19;36.94;101648.75;6234490;22;20166;-67
2021/01/15 02:46:41;;;;;;;1.70;1.60;;;;;;;21.19;36.85;101645.19;6255099;22;20580;-67
2021/01/15 02:49:10;;;;;;;1.40;1.30;;;;;;;21.19;37.00;101650.63;6280397;22;20201;-67
2021/01/15 02:51:38;;;;;;;1.37;1.30;;;;;;;21.20;37.17;101660.50;6229548;22;20193;-69
2021/01/15 02:54:04;;;;;;;1.30;1.30;;;;;;;21.20;37.15;101661.34;6254965;22;20598;-69
2021/01/15 02:56:30;;;;;;;1.57;1.47;;;;;;;21.21;37.05;101663.06;6255047;22;20158;-64
2021/01/15 02:58:56;;;;;;;1.40;1.30;;;;;;;21.22;37.12;101663.91;6280007;22;20241;-66
2021/01/15 03:01:22;;;;;;;1.50;1.40;;;;;;;21.23;37.39;101666.47;6254909;22;20166;-67
2021/01/15 03:03:51;;;;;;;1.60;1.50;;;;;;;21.25;37.33;101669.06;6280300;22;20154;-68
2021/01/15 03:06:32;;;;;;;1.53;1.43;;;;;;;21.27;37.39;101670.59;6229983;22;20185;-63
2021/01/15 03:08:58;;;;;;;1.50;1.40;;;;;;;21.28;37.39;101668.72;6307258;22;20178;-63
2021/01/15 03:11:24;;;;;;;1.60;1.50;;;;;;;21.30;37.10;101672.16;6280555;22;20193;-63
2021/01/15 03:13:51;;;;;;;1.70;1.60;;;;;;;21.32;37.19;101683.75;6229631;22;20174;-63
2021/01/15 03:16:17;;;;;;;1.73;1.63;;;;;;;21.33;36.89;101688.19;6229550;22;20158;-68
2021/01/15 03:18:43;;;;;;;1.73;1.63;;;;;;;21.32;36.92;101681.88;6254997;22;20165;-68
2021/01/15 03:21:09;;;;;;;1.60;1.50;;;;;;;21.30;37.00;101683.91;6254781;22;20204;-68
2021/01/15 03:23:38;;;;;;;1.60;1.50;;;;;;;21.31;37.01;101684.78;6280237;22;20728;-68
2021/01/15 03:26:05;;;;;;;1.70;1.60;;;;;;;21.30;37.02;101692.09;6254989;22;20455;-65
2021/01/15 03:28:31;;;;;;;1.50;1.40;;;;;;;21.30;36.80;101700.25;6229434;22;20162;-65
2021/01/15 03:30:57;;;;;;;1.50;1.40;;;;;;;21.30;36.72;101693.97;6253911;22;20197;-65
2021/01/15 03:33:23;;;;;;;1.40;1.30;;;;;;;21.31;37.00;101695.66;6279986;22;20166;-65
2021/01/15 03:35:49;;;;;;;1.87;1.77;;;;;;;21.30;37.13;101702.13;6254310;22;20185;-63
2021/01/15 03:38:15;;;;;;;1.60;1.50;;;;;;;21.29;37.02;101697.66;6279556;22;20511;-69
2021/01/15 03:40:45;;;;;;;1.60;1.50;;;;;;;21.30;36.81;101707.56;6306859;22;20175;-68
2021/01/15 03:43:21;;;;;;;1.57;1.47;;;;;;;21.30;37.10;101711.16;6306990;22;20576;-68
2021/01/15 03:45:51;;;;;;;1.67;1.57;;;;;;;21.30;37.08;101713.88;6254506;22;20154;-66
2021/01/15 03:48:18;;;;;;;1.20;1.20;;;;;;;21.30;36.94;101713.03;6254632;22;20150;-67
2021/01/15 03:50:44;;;;;;;1.60;1.50;;;;;;;21.29;36.96;101720.31;6254473;22;20241;-66
2021/01/15 03:53:12;;;;;;;1.37;1.30;;;;;;;21.31;37.01;101722.91;6307032;22;20158;-63
2021/01/15 03:55:38;;;;;;;1.63;1.53;;;;;;;21.30;37.14;101722.03;6306921;22;20155;-62
2021/01/15 03:58:05;;;;;;;1.50;1.40;;;;;;;21.33;37.32;101729.03;6306899;22;20468;-63
2021/01/15 04:00:31;;;;;;;1.57;1.47;;;;;;;21.34;37.19;101733.47;6253793;22;20194;-63
2021/01/15 04:02:57;;;;;;;1.47;1.47;;;;;;;21.36;37.35;101732.28;6280044;22;20183;-63
2021/01/15 04:05:23;;;;;;;1.50;1.40;;;;;;;21.38;37.30;101737.56;6229149;22;20212;-63
2021/01/15 04:07:49;;;;;;;1.70;1.60;;;;;;;21.40;37.24;101738.25;6306741;22;20158;-62
2021/01/15 04:10:18;;;;;;;1.40;1.30;;;;;;;21.42;37.08;101736.22;6254044;22;20760;-63
2021/01/15 04:12:44;;;;;;;1.37;1.33;;;;;;;21.43;37.21;101737.94;6279536;22;20228;-63
2021/01/15 04:15:12;;;;;;;1.30;1.30;;;;;;;21.45;36.97;101741.34;6279687;22;20681;-64
2021/01/15 04:17:38;;;;;;;1.50;1.40;;;;;;;21.45;37.09;101741.34;6306927;22;20162;-65
2021/01/15 04:20:05;;;;;;;1.50;1.40;;;;;;;21.43;36.89;101744.22;6306496;22;20663;-65
2021/01/15 04:22:42;;;;;;;1.40;1.30;;;;;;;21.42;37.02;101737.06;6254216;22;20158;-65
2021/01/15 04:25:08;;;;;;;1.60;1.50;;;;;;;21.42;36.93;101747.13;6254812;22;20150;-68
2021/01/15 04:27:35;;;;;;;1.40;1.40;;;;;;;21.40;37.03;101743.69;6280060;22;20169;-68
2021/01/15 04:30:03;;;;;;;1.53;1.43;;;;;;;21.38;36.74;101751.19;6306249;22;20185;-68
2021/01/15 04:32:30;;;;;;;1.63;1.53;;;;;;;21.36;36.73;101753.22;6254885;22;20205;-68
2021/01/15 04:34:56;;;;;;;1.70;1.60;;;;;;;21.32;36.79;101747.25;6280402;22;20223;-68
2021/01/15 04:37:22;;;;;;;1.70;1.60;;;;;;;21.29;36.59;101755.72;6307257;22;20454;-63
2021/01/15 04:39:48;;;;;;;1.70;1.60;;;;;;;21.26;36.89;101763.34;6280177;22;20182;-68
2021/01/15 04:42:15;;;;;;;1.70;1.60;;;;;;;21.22;36.66;101762.78;6306799;22;20542;-68
2021/01/15 04:44:42;;;;;;;1.70;1.60;;;;;;;21.17;36.80;101767.00;6254866;22;20158;-69
2021/01/15 04:47:08;;;;;;;1.77;1.67;;;;;;;21.14;36.85;101766.31;6306400;22;20170;-69
2021/01/15 04:49:35;;;;;;;1.80;1.70;;;;;;;21.13;37.02;101769.19;6254594;22;20174;-68
2021/01/15 04:52:02;;;;;;;1.70;1.60;;;;;;;21.12;36.80;101773.78;6308830;22;20182;-69
2021/01/15 04:54:36;;;;;;;2.10;2.00;;;;;;;21.13;37.07;101774.66;6308491;22;20173;-69
2021/01/15 04:57:06;;;;;;;1.87;1.77;;;;;;;21.13;37.15;101775.50;6256537;22;20172;-68
2021/01/15 04:59:34;;;;;;;2.17;2.07;;;;;;;21.14;37.23;101777.22;6281371;22;20209;-68
2021/01/15 05:02:07;;;;;;;2.20;2.10;;;;;;;21.19;37.03;101789.47;6281809;22;20161;-68
2021/01/15 05:04:33;;;;;;;2.20;2.10;;;;;;;21.18;37.39;101785.91;6256315;22;20437;-68
2021/01/15 05:06:59;;;;;;;2.00;1.90;;;;;;;21.21;37.32;101790.19;6230953;22;20172;-69
2021/01/15 05:09:26;;;;;;;2.50;2.40;;;;;;;21.23;37.36;101783.56;6255937;22;20193;-68
2021/01/15 05:11:52;;;;;;;2.20;2.10;;;;;;;21.26;37.27;101786.00;6230784;22;20709;-68
2021/01/15 05:14:20;;;;;;;2.20;2.10;;;;;;;21.29;37.21;101792.97;6281544;22;20592;-68
2021/01/15 05:16:47;;;;;;;2.00;1.90;;;;;;;21.32;37.17;101800.84;6281508;22;20170;-68
2021/01/15 05:19:14;;;;;;;2.50;2.40;;;;;;;21.34;37.10;101798.81;6256053;22;20205;-63
2021/01/15 05:21:40;;;;;;;2.10;2.00;;;;;;;21.36;37.09;101802.25;6281419;22;20163;-63
2021/01/15 05:24:07;;;;;;;2.00;1.90;;;;;;;21.38;37.20;101811.09;6308247;22;20158;-62
2021/01/15 05:26:42;;;;;;;2.30;2.20;;;;;;;21.40;37.02;101809.06;6308311;22;20158;-63
2021/01/15 05:29:08;;;;;;;2.10;2.00;;;;;;;21.40;36.94;101817.25;6307796;22;20510;-62
2021/01/15 05:31:47;;;;;;;2.27;2.17;;;;;;;21.41;37.11;101805.34;6307870;22;20220;-63
2021/01/15 05:34:13;;;;;;;2.43;2.33;;;;;;;21.38;37.01;101814.69;6308159;22;20215;-63
2021/01/15 05:36:39;;;;;;;2.47;2.30;;;;;;;21.37;36.97;101814.84;6255654;22;20159;-63
2021/01/15 05:39:11;;;;;;;2.43;2.33;;;;;;;21.37;36.89;101825.75;6281361;22;20614;-62
2021/01/15 05:41:37;;;;;;;2.40;2.30;;;;;;;21.33;36.46;101822.47;6281045;22;20158;-66
2021/01/15 05:44:04;;;;;;;2.57;2.40;;;;;;;21.29;36.75;101822.94;6308178;22;20239;-66
2021/01/15 05:46:30;;;;;;;2.97;2.77;;;;;;;21.26;36.88;101828.69;6281898;22;20186;-68
2021/01/15 05:48:59;;;;;;;2.53;2.33;;;;;;;21.22;36.90;101832.72;6281358;22;20235;-68
2021/01/15 05:51:33;;;;;;;2.80;2.60;;;;;;;21.22;36.89;101844.47;6308007;22;20192;-63
2021/01/15 05:53:59;;;;;;;2.80;2.60;;;;;;;21.20;36.83;101835.63;6308039;22;20245;-64
2021/01/15 05:56:35;;;;;;;2.90;2.70;;;;;;;21.19;36.96;101841.22;6281744;22;20165;-64
2021/01/15 05:59:08;;;;;;;2.70;2.50;;;;;;;21.19;36.85;101843.94;6280710;22;20174;-66
2021/01/15 06:01:44;;;;;;;2.70;2.50;;;;;;;21.19;36.97;101849.38;6307259;22;20229;-66
2021/01/15 06:04:11;;;;;;;2.83;2.63;;;;;;;21.20;36.84;101845.66;6282593;22;20219;-67
2021/01/15 06:06:37;;;;;;;2.90;2.70;;;;;;;21.19;37.12;101843.94;6255762;22;20250;-67
2021/01/15 06:09:10;;;;;;;2.63;2.43;;;;;;;21.21;36.82;101842.78;6255207;22;20189;-63
2021/01/15 06:11:38;;;;;;;2.83;2.63;;;;;;;21.22;37.23;101846.34;6229942;22;20263;-63
2021/01/15 06:14:19;;;;;;;2.83;2.63;;;;;;;21.24;37.10;101845.19;6308101;22;20142;-63
2021/01/15 06:16:45;;;;;;;2.87;2.67;;;;;;;21.25;37.07;101844.19;6256945;22;20189;-63
2021/01/15 06:19:11;;;;;;;2.80;2.60;;;;;;;21.27;36.99;101836.72;6307727;22;20187;-63
2021/01/15 06:21:37;;;;;;;2.60;2.50;;;;;;;21.30;37.11;101849.19;6307787;22;20618;-63
2021/01/15 06:24:09;;;;;;;2.80;2.70;;;;;;;21.33;36.96;101863.34;6307873;22;20158;-67
2021/01/15 06:26:37;;;;;;;2.57;2.40;;;;;;;21.36;37.17;101859.44;6255566;22;20155;-68
2021/01/15 06:29:12;;;;;;;2.30;2.20;;;;;;;21.39;37.29;101867.28;6255825;22;20182;-65
2021/01/15 06:31:49;;;;;;;2.50;2.40;;;;;;;21.40;37.18;101858.97;6280785;22;20603;-65
2021/01/15 06:34:19;;;;;;;2.80;2.60;;;;;;;21.41;37.10;101867.97;6282436;22;20143;-67
2021/01/15 06:36:49;;;;;;;2.40;2.30;;;;;;;21.41;37.09;101878.88;6307653;22;20223;-65
2021/01/15 06:39:16;;;;;;;2.57;2.47;;;;;;;21.41;36.99;101873.44;6280509;22;20243;-64
2021/01/15 06:41:43;;;;;;;2.47;2.37;;;;;;;21.41;36.81;101887.06;6307883;22;20154;-65
2021/01/15 06:44:10;;;;;;;2.20;2.10;;;;;;;21.38;37.03;101881.91;6307367;22;20603;-67
2021/01/15 06:46:40;;;;;;;4.40;3.10;;;;;;;21.35;37.49;101893.13;6255277;22;20166;-65
2021/01/15 06:49:06;;;;;;;4.00;3.70;;;;;;;21.33;37.26;101895.16;6255937;22;20612;-65
2021/01/15 06:51:36;;;;;;;4.07;3.70;;;;;;;21.33;37.09;101895.16;6255010;22;20182;-65
2021/01/15 06:54:06;;;;;;;3.60;3.30;;;;;;;21.33;37.21;101901.47;6280872;22;20154;-68
2021/01/15 06:56:37;;;;;;;4.00;3.00;;;;;;;21.33;37.38;101909.63;6254907;22;20223;-70
2021/01/15 06:59:04;;;;;;;3.27;3.07;;;;;;;21.32;37.43;101907.06;6229196;22;20189;-69
2021/01/15 07:01:39;;;;;;;3.40;3.10;;;;;;;21.34;37.35;101914.06;6255335;22;20162;-65
2021/01/15 07:04:26;;;;;;;3.10;2.80;;;;;;;21.36;37.12;101916.63;6230187;22;20438;-65
2021/01/15 07:07:13;;;;;;;3.03;2.77;;;;;;;21.36;37.26;101927.53;6307397;22;20162;-66
2021/01/15 07:09:43;;;;;;;2.73;2.53;;;;;;;21.36;37.17;101924.81;6254635;22;20655;-65
2021/01/15 07:12:11;;;;;;;3.30;3.03;;;;;;;21.37;37.41;101923.78;6280101;22;20190;-65
2021/01/15 07:14:46;;;;;;;3.07;2.77;;;;;;;21.41;37.39;101927.91;6255103;22;20170;-65
2021/01/15 07:17:34;;;;;;;2.87;2.67;;;;;;;21.42;37.39;101932.34;6229548;22;20166;-66
2021/01/15 07:20:24;;;;;;;2.70;2.50;;;;;;;21.44;37.52;101933.03;6258224;22;20182;-68
2021/01/15 07:22:51;;;;;;;2.70;2.50;;;;;;;21.45;37.48;101926.56;6283841;22;20162;-67
2021/01/15 07:25:18;;;;;;;2.70;2.50;;;;;;;21.48;37.63;101947.19;6280207;22;20158;-67
2021/01/15 07:27:45;;;;;;;2.40;2.30;;;;;;;21.49;37.41;101944.31;6254460;22;20177;-67
2021/01/15 07:30:13;;;;;;;2.40;2.30;;;;;;;21.52;37.65;101938.53;6253240;22;20635;-67
2021/01/15 07:32:40;;;;;;;2.30;2.20;;;;;;;21.54;37.54;101939.28;6254121;22;20170;-67
2021/01/15 07:35:07;;;;;;;2.60;2.40;;;;;;;21.57;37.73;101933.50;6280060;22;20207;-68
2021/01/15 07:37:33;;;;;;;2.30;2.20;;;;;;;21.60;37.45;101945.94;6253778;22;20158;-68
2021/01/15 07:40:20;;;;;;;2.57;2.37;;;;;;;21.65;37.50;101941.72;6254924;22;20196;-68
2021/01/15 07:42:59;;;;;;;2.60;2.20;;;;;;;21.67;37.64;101947.88;6280309;22;20481;-68
2021/01/15 07:45:41;;;;;;;2.57;2.37;;;;;;;21.70;37.71;101952.16;6257706;22;20195;-68
2021/01/15 07:48:08;;;;;;;2.33;2.10;;;;;;;21.71;37.71;101953.84;6255330;22;20233;-69
2021/01/15 07:50:35;;;;;;;2.40;2.30;;;;;;;21.73;37.69;101957.28;6255114;22;20193;-69
2021/01/15 07:53:16;;;;;;;2.10;2.00;;;;;;;21.78;37.51;101959.56;6230613;22;20250;-64
2021/01/15 07:55:49;;;;;;;2.00;1.90;;;;;;;21.81;37.65;101964.69;6282873;22;20162;-64
2021/01/15 07:58:17;;;;;;;2.30;2.20;;;;;;;21.84;37.64;101958.91;6255286;22;20227;-63
2021/01/15 08:00:44;;;;;;;2.00;1.90;;;;;;;21.85;37.73;101966.94;6229124;22;20185;-66
2021/01/15 08:03:11;;;;;;;2.00;1.90;;;;;;;21.89;37.45;101973.78;6255734;22;20177;-67
2021/01/15 08:05:37;;;;;;;2.43;2.33;;;;;;;21.91;37.54;101973.59;6307475;22;20587;-67
2021/01/15 08:08:16;;;;;;;2.10;2.00;;;;;;;21.96;37.39;101979.44;6230110;22;20162;-67
2021/01/15 08:10:50;;;;;;;2.40;2.20;;;;;;;21.99;37.38;101984.56;6255425;22;20174;-66
2021/01/15 08:13:26;;;;;;;2.40;2.20;;;;;;;22.02;37.72;101992.44;6256506;22;20190;-66
2021/01/15 08:15:53;;;;;;;2.27;1.93;;;;;;;22.05;37.43;101997.59;6255604;22;20702;-66
2021/01/15 08:18:19;;;;;;;2.20;2.00;;;;;;;22.07;37.51;102001.03;6255636;22;20154;-67
2021/01/15 08:20:53;;;;;;;3.30;2.30;;;;;;;22.11;37.74;102009.75;6280447;22;20178;-67
2021/01/15 08:23:23;;;;;;;3.20;2.00;;;;;;;22.16;37.48;102001.94;6256991;22;20151;-67
2021/01/15 08:25:51;;;;;;;3.33;2.40;;;;;;;22.21;37.71;102008.59;6255252;22;20228;-68
2021/01/15 08:28:17;;;;;;;3.67;2.40;;;;;;;22.24;37.75;102008.31;6255742;22;20158;-67
2021/01/15 08:31:07;;;;;;;4.10;2.37;;;;;;;22.29;37.77;102022.31;6253976;22;20182;-65
2021/01/15 08:33:34;;;;;;;2.93;1.80;;;;;;;22.32;37.67;102024.72;6258539;22;20155;-65
2021/01/15 08:36:01;;;;;;;2.80;2.50;;;;;;;22.35;37.71;102024.41;6230333;22;20166;-67
2021/01/15 08:38:35;;;;;;;2.57;2.10;;;;;;;22.40;37.77;102023.91;6280933;22;20264;-66
2021/01/15 08:41:12;;;;;;;3.43;2.23;;;;;;;22.42;37.52;102030.06;6254645;22;20189;-66
2021/01/15 08:43:38;;;;;;;5.47;2.73;;;;;;;22.48;37.81;102039.50;6283378;22;20142;-67
2021/01/15 08:46:04;;;;;;;6.23;2.70;;;;;;;22.51;37.79;102041.88;6255471;22;20158;-67
2021/01/15 08:48:31;;;;;;;4.30;2.53;;;;;;;22.52;37.31;102047.19;6254919;22;20169;-67
2021/01/15 08:51:08;;;;;;;4.80;2.90;;;;;;;22.56;37.74;102056.75;6254986;22;20190;-66
2021/01/15 08:54:04;;;;;;;6.73;2.60;;;;;;;22.58;37.58;102051.13;6257145;22;20548;-67
2021/01/15 08:56:37;;;;;;;7.73;2.40;;;;;;;22.63;37.35;102052.34;6267650;22;20236;-67
2021/01/15 08:59:07;;;;;;;5.33;2.60;;;;;;;22.65;37.81;102057.66;6255924;22;20178;-66
2021/01/15 09:01:35;;;;;;;5.80;2.50;;;;;;;22.67;37.56;102064.66;6255008;22;20219;-67
2021/01/15 09:04:05;;;;;;;5.50;2.57;;;;;;;22.69;37.49;102064.47;6254602;22;20193;-68
2021/01/15 09:06:31;;;;;;;4.03;2.83;;;;;;;22.72;37.61;102069.66;6306320;22;20158;-65
2021/01/15 09:09:03;;;;;;;4.90;2.37;;;;;;;22.75;37.66;102065.72;6307270;22;20199;-67
2021/01/15 09:11:40;;;;;;;5.67;2.90;;;;;;;22.79;37.42;102076.16;6281426;22;20256;-65
2021/01/15 09:14:08;;;;;;;7.93;3.07;;;;;;;22.80;37.19;102082.47;6280811;22;20221;-65
2021/01/15 09:16:34;;;;;;;6.53;3.20;;;;;;;22.82;37.24;102081.31;6307948;22;20158;-65
2021/01/15 09:19:08;;;;;;;7.00;3.10;;;;;;;22.84;37.25;102090.22;6307544;22;20243;-65
2021/01/15 09:21:45;;;;;;;5.10;2.70;;;;;;;22.87;37.16;102089.03;6306658;22;20143;-65
2021/01/15 09:24:12;;;;;;;6.37;2.77;;;;;;;22.87;37.48;102100.78;6307961;22;20150;-64
2021/01/15 09:26:38;;;;;;;5.90;3.00;;;;;;;22.88;37.38;102107.97;6307512;22;20194;-64
2021/01/15 09:29:04;;;;;;;8.53;3.30;;;;;;;22.92;37.05;102113.94;6307145;22;20178;-65
2021/01/15 09:31:30;;;;;;;4.73;2.63;;;;;;;22.93;37.32;102116.53;6307287;22;20217;-64
2021/01/15 09:33:56;;;;;;;5.80;2.90;;;;;;;22.95;37.24;102125.44;6307160;22;20169;-72
2021/01/15 09:36:24;;;;;;;5.23;2.60;;;;;;;22.99;37.27;102130.56;6280816;22;20237;-73
2021/01/15 09:38:51;;;;;;;10.43;3.50;;;;;;;23.01;37.16;102134.00;6282538;22;20155;-65
2021/01/15 09:41:17;;;;;;;10.70;3.40;;;;;;;23.02;37.30;102138.44;6281872;22;20181;-66
2021/01/15 09:43:43;;;;;;;11.97;3.43;;;;;;;23.05;37.28;102140.84;6282439;22;20159;-64
2021/01/15 09:46:22;;;;;;;10.03;3.87;;;;;;;23.07;37.61;102138.78;6256980;22;20568;-68
2021/01/15 09:48:49;;;;;;;14.10;3.87;;;;;;;23.09;37.37;102147.69;6259767;22;20166;-66
2021/01/15 09:51:15;;;;;;;16.20;3.90;;;;;;;23.12;37.29;102152.81;6257180;22;20210;-61
2021/01/15 09:53:41;;;;;;;14.00;3.77;;;;;;;23.13;37.32;102149.91;6282287;22;20185;-61
2021/01/15 09:56:07;;;;;;;16.90;4.20;;;;;;;23.15;37.33;102149.75;6308979;22;20155;-62
2021/01/15 09:58:33;;;;;;;16.85;4.20;;;;;;;23.16;37.37;102144.13;6308293;22;20220;-61
2021/01/15 10:00:59;;;;;;;14.70;4.27;;;;;;;23.18;37.40;102141.22;6230443;22;20174;-61
2021/01/15 10:03:25;;;;;;;15.57;4.00;;;;;;;23.21;37.22;102157.31;6282258;22;20241;-62
2021/01/15 10:05:51;;;;;;;18.73;4.33;;;;;;;23.21;37.36;102152.72;6256746;22;20158;-62
2021/01/15 10:08:22;;;;;;;18.30;4.35;;;;;;;23.23;37.28;102164.31;6256643;22;20241;-61
2021/01/15 10:10:48;;;;;;;17.10;4.55;;;;;;;23.26;37.42;102165.88;6281960;22;20186;-62
2021/01/15 10:13:14;;;;;;;21.67;4.50;;;;;;;23.27;37.29;102171.16;6308914;22;20177;-64
2021/01/15 10:15:40;;;;;;;19.85;4.57;;;;;;;23.30;37.37;102169.97;6256268;22;20211;-70
2021/01/15 10:18:06;;;;;;;21.02;5.05;;;;;;;23.32;37.27;102170.66;6309009;22;20165;-71
2021/01/15 10:20:32;;;;;;;19.83;5.15;;;;;;;23.33;37.43;102172.38;6308937;22;20178;-70
2021/01/15 10:22:59;;;;;;;26.55;4.80;;;;;;;23.36;37.37;102177.50;6308816;22;20208;-71
2021/01/15 10:25:25;;;;;;;14.80;4.47;;;;;;;23.38;37.33;102180.94;6308632;22;20185;-70
2021/01/15 10:27:51;;;;;;;23.13;4.87;;;;;;;23.39;37.31;102177.19;6256269;22;20231;-70
2021/01/15 10:30:17;;;;;;;18.13;5.07;;;;;;;23.43;37.31;102173.13;6307816;22;20185;-70
2021/01/15 10:32:47;;;;;;;19.65;5.00;;;;;;;23.45;37.40;102176.53;6308283;22;20198;-70
2021/01/15 10:35:14;;;;;;;18.35;4.82;;;;;;;23.47;37.30;102174.50;6308580;22;20162;-70
2021/01/15 10:37:40;;;;;;;18.92;4.65;;;;;;;23.48;37.33;102176.22;6308701;22;20543;-72
2021/01/15 10:40:08;;;;;;;17.70;4.72;;;;;;;23.52;37.59;102183.06;6281285;22;20242;-70
2021/01/15 10:42:42;;;;;;;18.27;4.90;;;;;;;23.55;37.37;102176.41;6256540;22;20151;-69
2021/01/15 10:45:09;;;;;;;17.60;4.82;;;;;;;23.56;37.37;102176.25;6307897;22;20178;-70
2021/01/15 10:47:39;;;;;;;17.20;4.80;;;;;;;23.58;37.43;102179.69;6281236;22;20155;-70
2021/01/15 10:50:05;;;;;;;17.02;4.53;;;;;;;23.60;37.31;102179.53;6255701;22;20220;-70
2021/01/15 10:52:32;;;;;;;16.15;4.45;;;;;;;23.62;37.54;102182.09;6307543;22;20186;-69
2021/01/15 10:54:58;;;;;;;15.57;4.47;;;;;;;23.65;37.41;102179.00;6307923;22;20334;-69
2021/01/15 10:57:24;;;;;;;16.07;4.83;;;;;;;23.65;37.27;102179.88;6307443;22;20603;-69
2021/01/15 10:59:50;;;;;;;15.23;5.05;;;;;;;23.68;37.23;102173.25;6279891;22;20575;-70
2021/01/15 11:02:16;;;;;;;16.23;4.80;;;;;;;23.70;37.22;102180.25;6280940;22;20158;-70
2021/01/15 11:04:42;;;;;;;14.30;4.22;;;;;;;23.71;37.28;102181.09;6308423;22;20462;-71
2021/01/15 11:07:08;;;;;;;15.07;4.30;;;;;;;23.73;37.29;102181.78;6256017;22;20576;-66
2021/01/15 11:09:34;;;;;;;14.82;3.90;;;;;;;23.74;37.25;102186.25;6308484;22;20197;-66
2021/01/15 11:12:01;;;;;;;12.27;4.20;;;;;;;23.76;37.27;102178.72;6280551;22;20578;-63
2021/01/15 11:14:27;;;;;;;12.48;3.83;;;;;;;23.78;36.97;102182.16;6256095;22;20151;-63
2021/01/15 11:16:54;;;;;;;13.52;4.10;;;;;;;23.80;36.89;102191.03;6308952;22;20154;-70
2021/01/15 11:19:20;;;;;;;11.48;4.30;;;;;;;23.80;37.05;102191.03;6255527;22;20178;-68
2021/01/15 11:21:46;;;;;;;10.27;3.90;;;;;;;23.80;37.04;102185.56;6308094;22;20181;-70
2021/01/15 11:24:13;;;;;;;11.63;3.78;;;;;;;23.81;36.93;102182.66;6308233;22;20154;-66
2021/01/15 11:26:39;;;;;;;12.15;4.10;;;;;;;23.81;36.85;102188.13;6281279;22;20201;-66
2021/01/15 11:29:06;;;;;;;12.13;5.03;;;;;;;23.81;36.94;102181.81;6307846;22;20251;-70
2021/01/15 11:31:32;;;;;;;14.50;6.40;;;;;;;23.76;36.78;102189.66;6281259;22;20228;-70
2021/01/15 11:34:00;;;;;;;14.13;6.80;;;;;;;23.73;36.17;102187.25;6308043;22;20255;-70